This is the latest recevied weather packets stored in our database for station/object G8SIB-9. If no packets are shown the sender has not sent any weather packets the latest 1 day(s).
| Time | Temp. | Humidity | Pressure | Rain* | Wind** | Luminosity | Snow |
|---|---|---|---|---|---|---|---|
| 1778096299 | 10.56° C | 76% | 1011.2 hPa | 0 mm | - | - | - |
| 1778095699 | 10.56° C | 76% | 1011.2 hPa | 0 mm | - | - | - |
| 1778095098 | 10.56° C | 75% | 1011 hPa | 0 mm | - | - | - |
| 1778093295 | 11.11° C | 70% | 1010.7 hPa | 0 mm | - | - | - |
| 1778091492 | 11.67° C | 69% | 1010.5 hPa | 0 mm | - | - | - |
| 1778090892 | 11.67° C | 68% | 1010.4 hPa | 0 mm | - | - | - |
| 1778090291 | 11.67° C | 68% | 1010.3 hPa | 0 mm | - | - | - |
| 1778086086 | 12.22° C | 59% | 1010 hPa | 0 mm | - | - | - |
| 1778084885 | 12.22° C | 59% | 1010 hPa | 0 mm | - | - | - |
| 1778081881 | 12.22° C | 59% | 1010 hPa | 0 mm | - | - | - |
| 1778078277 | 12.22° C | 60% | 1009.9 hPa | 0 mm | - | - | - |
| 1778077676 | 12.78° C | 60% | 1009.9 hPa | 0 mm | - | - | - |
| 1778074072 | 12.78° C | 57% | 1009.8 hPa | 0 mm | - | - | - |
| 1778073471 | 12.78° C | 59% | 1009.8 hPa | 0 mm | - | - | - |
| 1778071668 | 12.78° C | 56% | 1009.7 hPa | 0 mm | - | - | - |
| 1778068664 | 14.44° C | 56% | 1009.6 hPa | 0 mm | - | - | - |
| 1778067463 | 15° C | 58% | 1009.6 hPa | 0 mm | - | - | - |
| 1778066262 | 11.67° C | 69% | 1009.7 hPa | 0 mm | - | - | - |
| 1778065060 | 12.22° C | 74% | 1009.8 hPa | 0 mm | - | - | - |
| 1778064460 | 12.22° C | 70% | 1009.8 hPa | 0 mm | - | - | - |
| 1778063258 | 11.67° C | 67% | 1009.7 hPa | 0 mm | - | - | - |
| 1778061456 | 13.33° C | 61% | 1009.6 hPa | 0 mm | - | - | - |
| 1778060856 | 13.33° C | 61% | 1009.5 hPa | 0 mm | - | - | - |
| 1778055448 | 11.11° C | 67% | 1009.4 hPa | 0 mm | - | - | - |
| 1778053045 | 10.56° C | 69% | 1009.5 hPa | 0 mm | - | - | - |
* Rain latest hour (hover to see other rain measurements)
** Current wind speed in m/s (hover to see current wind gust speed)